sensor_id;sensor_type;location;lat;lon;timestamp;P1;durP1;ratioP1;P2;durP2;ratioP2
58661;SDS011;44432;49.786;22.760;2023-09-07T00:01:40;15.00;;;9.20;;
58661;SDS011;44432;49.786;22.760;2023-09-07T00:04:10;24.70;;;10.00;;
58661;SDS011;44432;49.786;22.760;2023-09-07T00:06:41;12.90;;;9.60;;
58661;SDS011;44432;49.786;22.760;2023-09-07T00:09:12;16.30;;;9.40;;
58661;SDS011;44432;49.786;22.760;2023-09-07T00:11:43;17.20;;;9.80;;
58661;SDS011;44432;49.786;22.760;2023-09-07T00:14:14;22.70;;;9.10;;
58661;SDS011;44432;49.786;22.760;2023-09-07T00:16:45;12.80;;;9.10;;
58661;SDS011;44432;49.786;22.760;2023-09-07T00:19:15;17.90;;;8.60;;
58661;SDS011;44432;49.786;22.760;2023-09-07T00:21:46;9.90;;;8.30;;
58661;SDS011;44432;49.786;22.760;2023-09-07T00:24:19;12.30;;;8.00;;
58661;SDS011;44432;49.786;22.760;2023-09-07T00:26:51;11.30;;;8.80;;
58661;SDS011;44432;49.786;22.760;2023-09-07T00:29:21;12.30;;;8.40;;
58661;SDS011;44432;49.786;22.760;2023-09-07T00:31:52;11.20;;;8.00;;
58661;SDS011;44432;49.786;22.760;2023-09-07T00:34:23;17.70;;;9.00;;
58661;SDS011;44432;49.786;22.760;2023-09-07T00:36:53;13.90;;;9.00;;
58661;SDS011;44432;49.786;22.760;2023-09-07T00:39:25;10.70;;;8.60;;
58661;SDS011;44432;49.786;22.760;2023-09-07T00:41:56;16.40;;;8.70;;
58661;SDS011;44432;49.786;22.760;2023-09-07T00:44:27;15.10;;;9.00;;
58661;SDS011;44432;49.786;22.760;2023-09-07T00:46:57;12.90;;;8.40;;
58661;SDS011;44432;49.786;22.760;2023-09-07T00:49:28;12.90;;;7.80;;
58661;SDS011;44432;49.786;22.760;2023-09-07T00:51:59;31.90;;;8.40;;
58661;SDS011;44432;49.786;22.760;2023-09-07T00:54:30;20.50;;;8.90;;
58661;SDS011;44432;49.786;22.760;2023-09-07T00:57:02;28.10;;;8.90;;
58661;SDS011;44432;49.786;22.760;2023-09-07T00:59:33;37.20;;;10.50;;
58661;SDS011;44432;49.786;22.760;2023-09-07T01:02:04;26.10;;;9.70;;
58661;SDS011;44432;49.786;22.760;2023-09-07T01:04:35;19.30;;;9.20;;
58661;SDS011;44432;49.786;22.760;2023-09-07T01:07:07;17.70;;;9.10;;
58661;SDS011;44432;49.786;22.760;2023-09-07T01:09:43;48.60;;;9.90;;
58661;SDS011;44432;49.786;22.760;2023-09-07T01:12:17;13.90;;;8.70;;
58661;SDS011;44432;49.786;22.760;2023-09-07T01:14:48;16.70;;;9.50;;
58661;SDS011;44432;49.786;22.760;2023-09-07T01:17:20;12.40;;;8.50;;
58661;SDS011;44432;49.786;22.760;2023-09-07T01:19:52;16.10;;;9.10;;
58661;SDS011;44432;49.786;22.760;2023-09-07T01:22:24;12.80;;;8.60;;
58661;SDS011;44432;49.786;22.760;2023-09-07T01:24:55;13.30;;;9.20;;
58661;SDS011;44432;49.786;22.760;2023-09-07T01:27:27;13.50;;;8.50;;
58661;SDS011;44432;49.786;22.760;2023-09-07T01:29:58;13.20;;;9.40;;
58661;SDS011;44432;49.786;22.760;2023-09-07T01:32:30;20.40;;;9.40;;
58661;SDS011;44432;49.786;22.760;2023-09-07T01:35:01;26.60;;;9.90;;
58661;SDS011;44432;49.786;22.760;2023-09-07T01:37:35;22.80;;;8.80;;
58661;SDS011;44432;49.786;22.760;2023-09-07T01:40:06;18.70;;;9.50;;
58661;SDS011;44432;49.786;22.760;2023-09-07T01:42:38;15.50;;;9.10;;
58661;SDS011;44432;49.786;22.760;2023-09-07T01:45:11;12.70;;;8.30;;
58661;SDS011;44432;49.786;22.760;2023-09-07T01:47:41;14.80;;;9.40;;
58661;SDS011;44432;49.786;22.760;2023-09-07T01:50:12;16.80;;;8.70;;
58661;SDS011;44432;49.786;22.760;2023-09-07T01:52:45;19.90;;;9.50;;
58661;SDS011;44432;49.786;22.760;2023-09-07T01:55:17;14.70;;;9.10;;
58661;SDS011;44432;49.786;22.760;2023-09-07T01:57:48;32.00;;;9.40;;
58661;SDS011;44432;49.786;22.760;2023-09-07T02:00:18;16.90;;;9.40;;
58661;SDS011;44432;49.786;22.760;2023-09-07T02:02:49;12.80;;;8.60;;
58661;SDS011;44432;49.786;22.760;2023-09-07T02:05:20;21.80;;;9.70;;
58661;SDS011;44432;49.786;22.760;2023-09-07T02:07:51;20.50;;;9.60;;
58661;SDS011;44432;49.786;22.760;2023-09-07T02:10:21;25.00;;;10.70;;
58661;SDS011;44432;49.786;22.760;2023-09-07T02:12:52;11.90;;;9.10;;
58661;SDS011;44432;49.786;22.760;2023-09-07T02:15:24;12.00;;;8.90;;
58661;SDS011;44432;49.786;22.760;2023-09-07T02:17:55;12.70;;;8.30;;
58661;SDS011;44432;49.786;22.760;2023-09-07T02:20:26;14.80;;;8.70;;
58661;SDS011;44432;49.786;22.760;2023-09-07T02:22:57;11.90;;;8.50;;
58661;SDS011;44432;49.786;22.760;2023-09-07T02:25:27;10.60;;;8.10;;
58661;SDS011;44432;49.786;22.760;2023-09-07T02:27:58;11.40;;;8.30;;
58661;SDS011;44432;49.786;22.760;2023-09-07T02:30:29;18.00;;;8.10;;
58661;SDS011;44432;49.786;22.760;2023-09-07T02:33:00;15.80;;;8.40;;
58661;SDS011;44432;49.786;22.760;2023-09-07T02:35:32;21.30;;;9.30;;
58661;SDS011;44432;49.786;22.760;2023-09-07T02:40:34;19.80;;;7.90;;
58661;SDS011;44432;49.786;22.760;2023-09-07T02:43:10;20.90;;;8.60;;
58661;SDS011;44432;49.786;22.760;2023-09-07T02:45:41;32.20;;;9.20;;
58661;SDS011;44432;49.786;22.760;2023-09-07T02:48:12;16.80;;;9.00;;
58661;SDS011;44432;49.786;22.760;2023-09-07T02:50:43;20.40;;;8.70;;
58661;SDS011;44432;49.786;22.760;2023-09-07T02:53:16;22.80;;;8.90;;
58661;SDS011;44432;49.786;22.760;2023-09-07T02:55:47;32.40;;;9.70;;
58661;SDS011;44432;49.786;22.760;2023-09-07T02:58:18;22.80;;;8.80;;
58661;SDS011;44432;49.786;22.760;2023-09-07T03:00:49;28.50;;;8.80;;
58661;SDS011;44432;49.786;22.760;2023-09-07T03:03:20;26.30;;;8.80;;
58661;SDS011;44432;49.786;22.760;2023-09-07T03:05:51;10.30;;;7.60;;
58661;SDS011;44432;49.786;22.760;2023-09-07T03:08:22;10.40;;;7.30;;
58661;SDS011;44432;49.786;22.760;2023-09-07T03:10:53;11.00;;;7.60;;
58661;SDS011;44432;49.786;22.760;2023-09-07T03:13:24;15.00;;;7.50;;
58661;SDS011;44432;49.786;22.760;2023-09-07T03:15:55;12.40;;;7.00;;
58661;SDS011;44432;49.786;22.760;2023-09-07T03:18:26;14.80;;;7.50;;
58661;SDS011;44432;49.786;22.760;2023-09-07T03:20:59;11.60;;;7.50;;
58661;SDS011;44432;49.786;22.760;2023-09-07T03:23:32;10.60;;;7.40;;
58661;SDS011;44432;49.786;22.760;2023-09-07T03:26:03;14.80;;;7.40;;
58661;SDS011;44432;49.786;22.760;2023-09-07T03:28:35;11.30;;;7.00;;
58661;SDS011;44432;49.786;22.760;2023-09-07T03:31:06;25.00;;;7.00;;
58661;SDS011;44432;49.786;22.760;2023-09-07T03:33:37;32.30;;;8.00;;
58661;SDS011;44432;49.786;22.760;2023-09-07T03:36:08;28.50;;;6.80;;
58661;SDS011;44432;49.786;22.760;2023-09-07T03:38:42;22.60;;;7.70;;
58661;SDS011;44432;49.786;22.760;2023-09-07T03:41:13;19.80;;;7.40;;
58661;SDS011;44432;49.786;22.760;2023-09-07T03:43:43;28.40;;;7.00;;
58661;SDS011;44432;49.786;22.760;2023-09-07T03:46:14;36.40;;;6.90;;
58661;SDS011;44432;49.786;22.760;2023-09-07T03:48:44;19.40;;;7.40;;
58661;SDS011;44432;49.786;22.760;2023-09-07T03:51:15;16.70;;;6.70;;
58661;SDS011;44432;49.786;22.760;2023-09-07T03:53:46;22.80;;;6.80;;
58661;SDS011;44432;49.786;22.760;2023-09-07T03:56:17;46.60;;;7.10;;
58661;SDS011;44432;49.786;22.760;2023-09-07T03:58:47;46.10;;;7.20;;
58661;SDS011;44432;49.786;22.760;2023-09-07T04:01:18;26.90;;;8.00;;
58661;SDS011;44432;49.786;22.760;2023-09-07T04:03:49;25.70;;;6.90;;
58661;SDS011;44432;49.786;22.760;2023-09-07T04:06:19;17.70;;;6.90;;
58661;SDS011;44432;49.786;22.760;2023-09-07T04:08:51;18.80;;;6.90;;
58661;SDS011;44432;49.786;22.760;2023-09-07T04:11:22;30.50;;;7.80;;
58661;SDS011;44432;49.786;22.760;2023-09-07T04:13:53;15.40;;;7.10;;
58661;SDS011;44432;49.786;22.760;2023-09-07T04:16:23;13.10;;;6.90;;
58661;SDS011;44432;49.786;22.760;2023-09-07T04:18:54;18.00;;;7.20;;
58661;SDS011;44432;49.786;22.760;2023-09-07T04:21:24;26.30;;;7.20;;
58661;SDS011;44432;49.786;22.760;2023-09-07T04:23:55;18.30;;;7.80;;
58661;SDS011;44432;49.786;22.760;2023-09-07T04:26:26;18.60;;;7.00;;
58661;SDS011;44432;49.786;22.760;2023-09-07T04:28:57;11.70;;;7.00;;
58661;SDS011;44432;49.786;22.760;2023-09-07T04:31:27;13.10;;;7.40;;
58661;SDS011;44432;49.786;22.760;2023-09-07T04:33:58;9.50;;;6.70;;
58661;SDS011;44432;49.786;22.760;2023-09-07T04:36:30;11.40;;;7.30;;
58661;SDS011;44432;49.786;22.760;2023-09-07T04:39:01;10.70;;;7.20;;
58661;SDS011;44432;49.786;22.760;2023-09-07T04:41:32;14.70;;;7.20;;
58661;SDS011;44432;49.786;22.760;2023-09-07T04:44:03;11.50;;;7.30;;
58661;SDS011;44432;49.786;22.760;2023-09-07T04:46:34;13.40;;;7.10;;
58661;SDS011;44432;49.786;22.760;2023-09-07T04:49:05;13.40;;;7.30;;
58661;SDS011;44432;49.786;22.760;2023-09-07T04:51:35;15.40;;;7.10;;
58661;SDS011;44432;49.786;22.760;2023-09-07T04:54:06;35.30;;;9.00;;
58661;SDS011;44432;49.786;22.760;2023-09-07T04:56:37;20.30;;;7.20;;
58661;SDS011;44432;49.786;22.760;2023-09-07T04:59:07;15.40;;;6.70;;
58661;SDS011;44432;49.786;22.760;2023-09-07T05:01:38;9.40;;;6.40;;
58661;SDS011;44432;49.786;22.760;2023-09-07T05:04:09;12.20;;;6.90;;
58661;SDS011;44432;49.786;22.760;2023-09-07T05:06:39;12.90;;;6.70;;
58661;SDS011;44432;49.786;22.760;2023-09-07T05:09:11;10.80;;;6.70;;
58661;SDS011;44432;49.786;22.760;2023-09-07T05:11:41;19.10;;;7.20;;
58661;SDS011;44432;49.786;22.760;2023-09-07T05:14:12;12.40;;;6.90;;
58661;SDS011;44432;49.786;22.760;2023-09-07T05:16:43;11.50;;;7.00;;
58661;SDS011;44432;49.786;22.760;2023-09-07T05:19:14;10.60;;;6.90;;
58661;SDS011;44432;49.786;22.760;2023-09-07T05:21:45;14.10;;;6.90;;
58661;SDS011;44432;49.786;22.760;2023-09-07T05:24:15;8.30;;;6.50;;
58661;SDS011;44432;49.786;22.760;2023-09-07T05:26:46;14.30;;;6.60;;
58661;SDS011;44432;49.786;22.760;2023-09-07T05:29:18;9.70;;;7.30;;
58661;SDS011;44432;49.786;22.760;2023-09-07T05:31:50;8.30;;;6.50;;
58661;SDS011;44432;49.786;22.760;2023-09-07T05:34:21;8.10;;;6.80;;
58661;SDS011;44432;49.786;22.760;2023-09-07T05:36:51;13.10;;;10.70;;
58661;SDS011;44432;49.786;22.760;2023-09-07T05:39:22;12.40;;;7.50;;
58661;SDS011;44432;49.786;22.760;2023-09-07T05:41:53;10.40;;;7.70;;
58661;SDS011;44432;49.786;22.760;2023-09-07T05:44:24;10.30;;;7.00;;
58661;SDS011;44432;49.786;22.760;2023-09-07T05:46:54;9.20;;;6.10;;
58661;SDS011;44432;49.786;22.760;2023-09-07T05:49:26;10.20;;;6.20;;
58661;SDS011;44432;49.786;22.760;2023-09-07T05:51:57;15.10;;;7.40;;
58661;SDS011;44432;49.786;22.760;2023-09-07T05:54:27;9.30;;;6.50;;
58661;SDS011;44432;49.786;22.760;2023-09-07T05:56:58;9.20;;;6.90;;
58661;SDS011;44432;49.786;22.760;2023-09-07T05:59:29;12.70;;;6.30;;
58661;SDS011;44432;49.786;22.760;2023-09-07T06:01:59;9.50;;;7.10;;
58661;SDS011;44432;49.786;22.760;2023-09-07T06:04:31;9.80;;;6.30;;
58661;SDS011;44432;49.786;22.760;2023-09-07T06:07:03;9.20;;;6.60;;
58661;SDS011;44432;49.786;22.760;2023-09-07T06:09:34;8.00;;;6.20;;
58661;SDS011;44432;49.786;22.760;2023-09-07T06:12:05;7.90;;;6.30;;
58661;SDS011;44432;49.786;22.760;2023-09-07T06:14:36;9.10;;;6.00;;
58661;SDS011;44432;49.786;22.760;2023-09-07T06:17:06;10.90;;;6.40;;
58661;SDS011;44432;49.786;22.760;2023-09-07T06:19:37;7.70;;;5.80;;
58661;SDS011;44432;49.786;22.760;2023-09-07T06:22:08;7.90;;;5.90;;
58661;SDS011;44432;49.786;22.760;2023-09-07T06:24:39;12.40;;;6.60;;
58661;SDS011;44432;49.786;22.760;2023-09-07T06:27:10;11.10;;;6.30;;
58661;SDS011;44432;49.786;22.760;2023-09-07T06:29:40;8.30;;;6.20;;
58661;SDS011;44432;49.786;22.760;2023-09-07T06:32:11;9.80;;;5.80;;
58661;SDS011;44432;49.786;22.760;2023-09-07T06:34:42;7.90;;;6.10;;
58661;SDS011;44432;49.786;22.760;2023-09-07T06:37:13;12.10;;;7.30;;
58661;SDS011;44432;49.786;22.760;2023-09-07T06:39:43;9.30;;;6.40;;
58661;SDS011;44432;49.786;22.760;2023-09-07T06:42:14;12.60;;;6.20;;
58661;SDS011;44432;49.786;22.760;2023-09-07T06:44:45;9.90;;;6.00;;
58661;SDS011;44432;49.786;22.760;2023-09-07T06:47:15;8.10;;;6.00;;
58661;SDS011;44432;49.786;22.760;2023-09-07T06:49:46;11.10;;;6.40;;
58661;SDS011;44432;49.786;22.760;2023-09-07T06:52:17;8.50;;;6.00;;
58661;SDS011;44432;49.786;22.760;2023-09-07T06:54:47;7.70;;;5.90;;
58661;SDS011;44432;49.786;22.760;2023-09-07T06:57:21;9.90;;;6.60;;
58661;SDS011;44432;49.786;22.760;2023-09-07T06:59:52;11.50;;;6.80;;
58661;SDS011;44432;49.786;22.760;2023-09-07T07:02:23;8.50;;;6.30;;
58661;SDS011;44432;49.786;22.760;2023-09-07T07:04:54;10.30;;;7.10;;
58661;SDS011;44432;49.786;22.760;2023-09-07T07:07:24;10.40;;;6.70;;
58661;SDS011;44432;49.786;22.760;2023-09-07T07:09:58;8.90;;;6.40;;
58661;SDS011;44432;49.786;22.760;2023-09-07T07:12:28;9.80;;;6.50;;
58661;SDS011;44432;49.786;22.760;2023-09-07T07:15:02;10.40;;;6.40;;
58661;SDS011;44432;49.786;22.760;2023-09-07T07:17:35;9.60;;;6.50;;
58661;SDS011;44432;49.786;22.760;2023-09-07T07:20:07;9.70;;;6.40;;
58661;SDS011;44432;49.786;22.760;2023-09-07T07:22:38;10.40;;;6.30;;
58661;SDS011;44432;49.786;22.760;2023-09-07T07:25:10;11.00;;;7.10;;
58661;SDS011;44432;49.786;22.760;2023-09-07T07:27:41;11.50;;;7.70;;
58661;SDS011;44432;49.786;22.760;2023-09-07T07:30:13;11.50;;;6.90;;
58661;SDS011;44432;49.786;22.760;2023-09-07T07:32:44;11.30;;;7.30;;
58661;SDS011;44432;49.786;22.760;2023-09-07T07:35:14;17.30;;;7.50;;
58661;SDS011;44432;49.786;22.760;2023-09-07T07:37:45;11.70;;;8.10;;
58661;SDS011;44432;49.786;22.760;2023-09-07T07:40:16;12.30;;;7.60;;
58661;SDS011;44432;49.786;22.760;2023-09-07T07:42:47;11.40;;;7.40;;
58661;SDS011;44432;49.786;22.760;2023-09-07T07:45:19;10.60;;;7.60;;
58661;SDS011;44432;49.786;22.760;2023-09-07T07:47:50;12.80;;;8.60;;
58661;SDS011;44432;49.786;22.760;2023-09-07T07:50:22;14.00;;;8.00;;
58661;SDS011;44432;49.786;22.760;2023-09-07T07:52:52;14.40;;;7.50;;
58661;SDS011;44432;49.786;22.760;2023-09-07T07:55:23;13.90;;;8.90;;
58661;SDS011;44432;49.786;22.760;2023-09-07T07:57:54;14.30;;;8.40;;
58661;SDS011;44432;49.786;22.760;2023-09-07T08:00:24;15.50;;;8.80;;
58661;SDS011;44432;49.786;22.760;2023-09-07T08:02:55;14.90;;;8.50;;
58661;SDS011;44432;49.786;22.760;2023-09-07T08:05:26;15.10;;;8.10;;
58661;SDS011;44432;49.786;22.760;2023-09-07T08:07:57;16.40;;;8.60;;
58661;SDS011;44432;49.786;22.760;2023-09-07T08:10:27;12.60;;;8.40;;
58661;SDS011;44432;49.786;22.760;2023-09-07T08:13:02;19.40;;;9.40;;
58661;SDS011;44432;49.786;22.760;2023-09-07T08:15:33;13.20;;;8.10;;
58661;SDS011;44432;49.786;22.760;2023-09-07T08:18:04;10.90;;;7.30;;
58661;SDS011;44432;49.786;22.760;2023-09-07T08:20:36;15.20;;;7.90;;
58661;SDS011;44432;49.786;22.760;2023-09-07T08:23:09;12.50;;;7.90;;
58661;SDS011;44432;49.786;22.760;2023-09-07T08:25:39;12.30;;;8.40;;
58661;SDS011;44432;49.786;22.760;2023-09-07T08:28:14;14.30;;;7.70;;
58661;SDS011;44432;49.786;22.760;2023-09-07T08:30:46;12.80;;;7.60;;
58661;SDS011;44432;49.786;22.760;2023-09-07T08:33:17;10.10;;;6.10;;
58661;SDS011;44432;49.786;22.760;2023-09-07T08:35:53;11.90;;;6.70;;
58661;SDS011;44432;49.786;22.760;2023-09-07T08:38:25;10.50;;;6.70;;
58661;SDS011;44432;49.786;22.760;2023-09-07T08:40:55;10.70;;;6.50;;
58661;SDS011;44432;49.786;22.760;2023-09-07T08:43:33;10.70;;;6.70;;
58661;SDS011;44432;49.786;22.760;2023-09-07T08:46:15;9.80;;;6.40;;
58661;SDS011;44432;49.786;22.760;2023-09-07T08:48:48;12.50;;;6.90;;
58661;SDS011;44432;49.786;22.760;2023-09-07T08:51:19;9.90;;;6.40;;
58661;SDS011;44432;49.786;22.760;2023-09-07T08:53:50;11.80;;;6.70;;
58661;SDS011;44432;49.786;22.760;2023-09-07T08:56:21;12.20;;;7.00;;
58661;SDS011;44432;49.786;22.760;2023-09-07T08:58:53;12.60;;;6.90;;
58661;SDS011;44432;49.786;22.760;2023-09-07T09:01:24;12.70;;;7.50;;
58661;SDS011;44432;49.786;22.760;2023-09-07T09:03:59;15.70;;;7.70;;
58661;SDS011;44432;49.786;22.760;2023-09-07T09:06:29;11.00;;;7.20;;
58661;SDS011;44432;49.786;22.760;2023-09-07T09:09:00;14.30;;;7.60;;
58661;SDS011;44432;49.786;22.760;2023-09-07T09:11:32;13.80;;;7.60;;
58661;SDS011;44432;49.786;22.760;2023-09-07T09:14:04;11.90;;;7.40;;
58661;SDS011;44432;49.786;22.760;2023-09-07T09:16:35;11.90;;;6.90;;
58661;SDS011;44432;49.786;22.760;2023-09-07T09:19:06;11.20;;;7.50;;
58661;SDS011;44432;49.786;22.760;2023-09-07T09:21:37;14.00;;;6.70;;
58661;SDS011;44432;49.786;22.760;2023-09-07T09:24:09;10.70;;;7.20;;
58661;SDS011;44432;49.786;22.760;2023-09-07T09:26:40;12.30;;;6.70;;
58661;SDS011;44432;49.786;22.760;2023-09-07T09:29:11;12.60;;;7.70;;
58661;SDS011;44432;49.786;22.760;2023-09-07T09:31:43;12.00;;;7.30;;
58661;SDS011;44432;49.786;22.760;2023-09-07T09:34:16;13.10;;;7.40;;
58661;SDS011;44432;49.786;22.760;2023-09-07T09:36:48;13.40;;;7.50;;
58661;SDS011;44432;49.786;22.760;2023-09-07T09:39:22;13.20;;;6.90;;
58661;SDS011;44432;49.786;22.760;2023-09-07T09:41:53;10.20;;;6.80;;
58661;SDS011;44432;49.786;22.760;2023-09-07T09:44:24;12.20;;;6.80;;
58661;SDS011;44432;49.786;22.760;2023-09-07T09:49:27;13.20;;;9.20;;
58661;SDS011;44432;49.786;22.760;2023-09-07T09:51:59;11.30;;;6.90;;
58661;SDS011;44432;49.786;22.760;2023-09-07T09:54:31;10.20;;;6.30;;
58661;SDS011;44432;49.786;22.760;2023-09-07T09:57:04;10.70;;;6.00;;
58661;SDS011;44432;49.786;22.760;2023-09-07T09:59:35;11.50;;;6.00;;
58661;SDS011;44432;49.786;22.760;2023-09-07T10:02:07;11.80;;;6.20;;
58661;SDS011;44432;49.786;22.760;2023-09-07T10:04:39;12.10;;;6.40;;
58661;SDS011;44432;49.786;22.760;2023-09-07T10:07:09;11.40;;;5.50;;
58661;SDS011;44432;49.786;22.760;2023-09-07T10:09:40;8.60;;;5.50;;
58661;SDS011;44432;49.786;22.760;2023-09-07T10:12:12;10.20;;;5.50;;
58661;SDS011;44432;49.786;22.760;2023-09-07T10:14:43;12.40;;;5.20;;
58661;SDS011;44432;49.786;22.760;2023-09-07T10:17:22;7.60;;;5.80;;
58661;SDS011;44432;49.786;22.760;2023-09-07T10:20:02;9.10;;;5.80;;
58661;SDS011;44432;49.786;22.760;2023-09-07T10:22:34;12.20;;;5.80;;
58661;SDS011;44432;49.786;22.760;2023-09-07T10:25:05;11.80;;;6.00;;
58661;SDS011;44432;49.786;22.760;2023-09-07T10:27:46;8.40;;;6.20;;
58661;SDS011;44432;49.786;22.760;2023-09-07T10:30:18;11.70;;;6.20;;
58661;SDS011;44432;49.786;22.760;2023-09-07T10:32:51;8.40;;;5.80;;
58661;SDS011;44432;49.786;22.760;2023-09-07T10:35:22;8.80;;;5.40;;
58661;SDS011;44432;49.786;22.760;2023-09-07T10:37:53;9.10;;;7.00;;
58661;SDS011;44432;49.786;22.760;2023-09-07T10:40:24;8.80;;;5.90;;
58661;SDS011;44432;49.786;22.760;2023-09-07T10:43:04;8.70;;;5.00;;
58661;SDS011;44432;49.786;22.760;2023-09-07T10:45:36;7.50;;;5.30;;
58661;SDS011;44432;49.786;22.760;2023-09-07T10:48:08;6.70;;;4.70;;
58661;SDS011;44432;49.786;22.760;2023-09-07T10:50:46;7.90;;;5.70;;
58661;SDS011;44432;49.786;22.760;2023-09-07T10:53:25;7.80;;;5.30;;
58661;SDS011;44432;49.786;22.760;2023-09-07T10:55:58;8.90;;;5.70;;
58661;SDS011;44432;49.786;22.760;2023-09-07T10:58:32;9.80;;;5.70;;
58661;SDS011;44432;49.786;22.760;2023-09-07T11:01:06;9.50;;;5.70;;
58661;SDS011;44432;49.786;22.760;2023-09-07T11:03:37;6.90;;;5.00;;
58661;SDS011;44432;49.786;22.760;2023-09-07T11:06:08;8.60;;;5.90;;
58661;SDS011;44432;49.786;22.760;2023-09-07T11:08:42;8.80;;;5.10;;
58661;SDS011;44432;49.786;22.760;2023-09-07T11:11:12;8.40;;;5.60;;
58661;SDS011;44432;49.786;22.760;2023-09-07T11:13:44;12.10;;;5.10;;
58661;SDS011;44432;49.786;22.760;2023-09-07T11:16:14;8.80;;;5.00;;
58661;SDS011;44432;49.786;22.760;2023-09-07T11:18:46;8.40;;;5.40;;
58661;SDS011;44432;49.786;22.760;2023-09-07T11:21:19;8.90;;;5.00;;
58661;SDS011;44432;49.786;22.760;2023-09-07T11:23:50;8.40;;;5.00;;
58661;SDS011;44432;49.786;22.760;2023-09-07T11:26:21;8.20;;;5.40;;
58661;SDS011;44432;49.786;22.760;2023-09-07T11:28:52;9.90;;;5.10;;
58661;SDS011;44432;49.786;22.760;2023-09-07T11:31:23;8.90;;;5.60;;
58661;SDS011;44432;49.786;22.760;2023-09-07T11:33:54;8.50;;;5.00;;
58661;SDS011;44432;49.786;22.760;2023-09-07T11:36:24;8.20;;;5.50;;
58661;SDS011;44432;49.786;22.760;2023-09-07T11:38:55;7.20;;;5.10;;
58661;SDS011;44432;49.786;22.760;2023-09-07T11:41:26;8.20;;;5.10;;
58661;SDS011;44432;49.786;22.760;2023-09-07T11:43:57;9.60;;;5.40;;
58661;SDS011;44432;49.786;22.760;2023-09-07T11:46:28;11.30;;;5.50;;
58661;SDS011;44432;49.786;22.760;2023-09-07T11:48:59;7.80;;;5.10;;
58661;SDS011;44432;49.786;22.760;2023-09-07T11:51:30;8.20;;;5.10;;
58661;SDS011;44432;49.786;22.760;2023-09-07T11:54:01;9.60;;;4.80;;
58661;SDS011;44432;49.786;22.760;2023-09-07T11:56:32;6.90;;;4.80;;
58661;SDS011;44432;49.786;22.760;2023-09-07T11:59:07;8.20;;;4.60;;
58661;SDS011;44432;49.786;22.760;2023-09-07T12:01:38;7.30;;;5.00;;
58661;SDS011;44432;49.786;22.760;2023-09-07T12:04:09;7.40;;;5.10;;
58661;SDS011;44432;49.786;22.760;2023-09-07T12:06:39;8.10;;;4.90;;
58661;SDS011;44432;49.786;22.760;2023-09-07T12:09:10;7.50;;;4.80;;
58661;SDS011;44432;49.786;22.760;2023-09-07T12:11:42;7.60;;;4.60;;
58661;SDS011;44432;49.786;22.760;2023-09-07T12:14:13;7.90;;;4.60;;
58661;SDS011;44432;49.786;22.760;2023-09-07T12:16:44;7.90;;;4.30;;
58661;SDS011;44432;49.786;22.760;2023-09-07T12:19:14;7.50;;;4.90;;
58661;SDS011;44432;49.786;22.760;2023-09-07T12:21:45;6.10;;;4.30;;
58661;SDS011;44432;49.786;22.760;2023-09-07T12:24:16;8.10;;;4.60;;
58661;SDS011;44432;49.786;22.760;2023-09-07T12:26:47;7.50;;;4.80;;
58661;SDS011;44432;49.786;22.760;2023-09-07T12:29:18;8.60;;;4.30;;
58661;SDS011;44432;49.786;22.760;2023-09-07T12:31:48;8.10;;;4.50;;
58661;SDS011;44432;49.786;22.760;2023-09-07T12:34:19;7.00;;;4.40;;
58661;SDS011;44432;49.786;22.760;2023-09-07T12:36:50;6.90;;;4.60;;
58661;SDS011;44432;49.786;22.760;2023-09-07T12:39:21;6.50;;;4.40;;
58661;SDS011;44432;49.786;22.760;2023-09-07T12:41:51;7.80;;;4.50;;
58661;SDS011;44432;49.786;22.760;2023-09-07T12:44:22;5.80;;;4.40;;
58661;SDS011;44432;49.786;22.760;2023-09-07T12:46:53;7.20;;;4.50;;
58661;SDS011;44432;49.786;22.760;2023-09-07T12:49:23;6.50;;;4.70;;
58661;SDS011;44432;49.786;22.760;2023-09-07T12:51:54;6.30;;;4.40;;
58661;SDS011;44432;49.786;22.760;2023-09-07T12:54:25;6.80;;;4.50;;
58661;SDS011;44432;49.786;22.760;2023-09-07T12:56:55;6.30;;;4.10;;
58661;SDS011;44432;49.786;22.760;2023-09-07T12:59:26;7.20;;;4.60;;
58661;SDS011;44432;49.786;22.760;2023-09-07T13:01:57;8.10;;;4.70;;
58661;SDS011;44432;49.786;22.760;2023-09-07T13:04:28;7.40;;;4.80;;
58661;SDS011;44432;49.786;22.760;2023-09-07T13:06:58;7.90;;;4.40;;
58661;SDS011;44432;49.786;22.760;2023-09-07T13:09:30;7.60;;;5.70;;
58661;SDS011;44432;49.786;22.760;2023-09-07T13:12:01;7.30;;;5.30;;
58661;SDS011;44432;49.786;22.760;2023-09-07T13:14:32;10.10;;;5.40;;
58661;SDS011;44432;49.786;22.760;2023-09-07T13:17:02;8.30;;;5.20;;
58661;SDS011;44432;49.786;22.760;2023-09-07T13:19:33;9.20;;;4.70;;
58661;SDS011;44432;49.786;22.760;2023-09-07T13:22:04;6.90;;;4.80;;
58661;SDS011;44432;49.786;22.760;2023-09-07T13:24:36;6.10;;;4.90;;
58661;SDS011;44432;49.786;22.760;2023-09-07T13:27:06;7.00;;;4.60;;
58661;SDS011;44432;49.786;22.760;2023-09-07T13:29:37;7.30;;;4.80;;
58661;SDS011;44432;49.786;22.760;2023-09-07T13:32:08;9.80;;;4.90;;
58661;SDS011;44432;49.786;22.760;2023-09-07T13:34:40;8.50;;;5.50;;
58661;SDS011;44432;49.786;22.760;2023-09-07T13:37:11;8.90;;;4.90;;
58661;SDS011;44432;49.786;22.760;2023-09-07T13:39:41;7.10;;;5.30;;
58661;SDS011;44432;49.786;22.760;2023-09-07T13:42:12;8.20;;;5.50;;
58661;SDS011;44432;49.786;22.760;2023-09-07T13:44:43;9.10;;;5.20;;
58661;SDS011;44432;49.786;22.760;2023-09-07T13:47:15;8.10;;;5.20;;
58661;SDS011;44432;49.786;22.760;2023-09-07T13:49:45;7.60;;;5.10;;
58661;SDS011;44432;49.786;22.760;2023-09-07T13:52:16;6.80;;;4.80;;
58661;SDS011;44432;49.786;22.760;2023-09-07T13:54:47;7.50;;;4.90;;
58661;SDS011;44432;49.786;22.760;2023-09-07T13:57:18;8.70;;;5.10;;
58661;SDS011;44432;49.786;22.760;2023-09-07T13:59:48;8.40;;;5.00;;
58661;SDS011;44432;49.786;22.760;2023-09-07T14:02:19;10.20;;;5.20;;
58661;SDS011;44432;49.786;22.760;2023-09-07T14:04:50;11.50;;;5.30;;
58661;SDS011;44432;49.786;22.760;2023-09-07T14:07:21;9.40;;;5.30;;
58661;SDS011;44432;49.786;22.760;2023-09-07T14:09:53;7.70;;;6.00;;
58661;SDS011;44432;49.786;22.760;2023-09-07T14:12:24;9.90;;;4.80;;
58661;SDS011;44432;49.786;22.760;2023-09-07T14:14:55;10.00;;;5.10;;
58661;SDS011;44432;49.786;22.760;2023-09-07T14:17:25;8.60;;;5.60;;
58661;SDS011;44432;49.786;22.760;2023-09-07T14:19:56;10.30;;;5.50;;
58661;SDS011;44432;49.786;22.760;2023-09-07T14:22:27;12.30;;;6.00;;
58661;SDS011;44432;49.786;22.760;2023-09-07T14:24:58;6.60;;;5.10;;
58661;SDS011;44432;49.786;22.760;2023-09-07T14:27:29;9.10;;;5.70;;
58661;SDS011;44432;49.786;22.760;2023-09-07T14:30:00;8.40;;;5.60;;
58661;SDS011;44432;49.786;22.760;2023-09-07T14:32:31;10.50;;;5.40;;
58661;SDS011;44432;49.786;22.760;2023-09-07T14:35:03;10.30;;;5.60;;
58661;SDS011;44432;49.786;22.760;2023-09-07T14:37:34;9.40;;;5.80;;
58661;SDS011;44432;49.786;22.760;2023-09-07T14:40:06;9.00;;;5.20;;
58661;SDS011;44432;49.786;22.760;2023-09-07T14:42:39;7.80;;;5.20;;
58661;SDS011;44432;49.786;22.760;2023-09-07T14:45:10;8.10;;;5.20;;
58661;SDS011;44432;49.786;22.760;2023-09-07T14:47:41;6.70;;;5.00;;
58661;SDS011;44432;49.786;22.760;2023-09-07T14:50:12;8.90;;;5.20;;
58661;SDS011;44432;49.786;22.760;2023-09-07T14:52:43;8.60;;;5.20;;
58661;SDS011;44432;49.786;22.760;2023-09-07T14:55:15;7.30;;;5.50;;